Time;durP1;ratioP1;P1;durP2;ratioP2;P2;SDS_P1;SDS_P2;PMS_P1;PMS_P2;Temp;Humidity;BMP_temperature;BMP_pressure;BME280_temperature;BME280_humidity;BME280_pressure;Samples;Min_cycle;Max_cycle;Signal;HPM_P1;HPM_P2
2022/03/11 00:01:30;;;;;;;11.25;8.27;;;;;;;;;;4949826;28;20046;-74
2022/03/11 00:03:56;;;;;;;10.45;7.68;;;;;;;;;;4950821;29;20487;-74
2022/03/11 00:06:22;;;;;;;11.65;8.25;;;;;;;;;;4948047;28;20066;-74
2022/03/11 00:08:49;;;;;;;10.63;8.25;;;;;;;;;;4952919;28;20043;-74
2022/03/11 00:11:16;;;;;;;13.57;8.73;;;;;;;;;;4945355;28;20047;-75
2022/03/11 00:13:42;;;;;;;14.00;8.90;;;;;;;;;;4948605;28;20039;-74
2022/03/11 00:16:08;;;;;;;8.25;6.57;;;;;;;;;;4951780;29;20089;-74
2022/03/11 00:18:34;;;;;;;11.13;8.00;;;;;;;;;;4947444;29;20101;-74
2022/03/11 00:21:00;;;;;;;11.82;8.15;;;;;;;;;;4952541;29;20047;-74
2022/03/11 00:23:26;;;;;;;9.80;7.80;;;;;;;;;;4945321;28;20095;-74
2022/03/11 00:25:52;;;;;;;11.45;7.97;;;;;;;;;;4949509;28;20058;-74
2022/03/11 00:28:18;;;;;;;11.80;8.05;;;;;;;;;;4948131;28;20066;-74
2022/03/11 00:30:44;;;;;;;10.00;8.10;;;;;;;;;;4944911;28;20123;-74
2022/03/11 00:33:10;;;;;;;10.38;7.93;;;;;;;;;;4952655;28;20513;-75
2022/03/11 00:35:36;;;;;;;11.48;8.48;;;;;;;;;;4950292;28;20051;-76
2022/03/11 00:38:02;;;;;;;9.68;7.93;;;;;;;;;;4924812;29;20437;-75
2022/03/11 00:40:28;;;;;;;11.73;8.02;;;;;;;;;;4946379;28;20074;-75
2022/03/11 00:42:54;;;;;;;9.38;7.20;;;;;;;;;;4947705;28;20058;-75
2022/03/11 00:45:20;;;;;;;10.57;7.82;;;;;;;;;;4948639;28;20050;-75
2022/03/11 00:47:46;;;;;;;10.82;8.48;;;;;;;;;;4949230;28;20055;-75
2022/03/11 00:50:12;;;;;;;9.52;7.22;;;;;;;;;;4926828;29;20043;-75
2022/03/11 00:52:41;;;;;;;9.70;7.72;;;;;;;;;;4946395;28;20477;-75
2022/03/11 00:55:07;;;;;;;11.80;7.75;;;;;;;;;;4938624;29;20055;-75
2022/03/11 00:57:33;;;;;;;9.82;7.70;;;;;;;;;;4941269;28;20073;-75
2022/03/11 00:59:59;;;;;;;11.00;7.82;;;;;;;;;;4939309;28;20469;-75
2022/03/11 01:02:25;;;;;;;9.80;7.38;;;;;;;;;;4944877;29;20126;-75
2022/03/11 01:04:51;;;;;;;13.88;8.50;;;;;;;;;;4947950;29;20385;-75
2022/03/11 01:07:17;;;;;;;9.80;7.72;;;;;;;;;;4945599;29;20054;-75
2022/03/11 01:09:43;;;;;;;11.15;8.98;;;;;;;;;;4935396;29;20055;-75
2022/03/11 01:12:09;;;;;;;11.18;7.15;;;;;;;;;;4946739;28;20101;-75
2022/03/11 01:14:35;;;;;;;15.00;7.55;;;;;;;;;;4951438;28;20043;-75
2022/03/11 01:17:01;;;;;;;9.27;7.88;;;;;;;;;;4947821;29;20039;-75
2022/03/11 01:19:27;;;;;;;11.48;8.07;;;;;;;;;;4944717;29;20046;-75
2022/03/11 01:21:53;;;;;;;11.43;8.25;;;;;;;;;;4949886;29;20039;-75
2022/03/11 01:24:21;;;;;;;10.05;7.75;;;;;;;;;;4952948;28;20050;-75
2022/03/11 01:26:47;;;;;;;10.15;7.82;;;;;;;;;;4953367;28;20075;-75
2022/03/11 01:29:13;;;;;;;10.48;7.80;;;;;;;;;;4947187;28;20075;-75
2022/03/11 01:31:39;;;;;;;11.02;8.60;;;;;;;;;;4955837;28;20377;-75
2022/03/11 01:34:05;;;;;;;11.40;8.20;;;;;;;;;;4950657;28;20043;-75
2022/03/11 01:36:31;;;;;;;13.15;8.38;;;;;;;;;;4946933;28;20087;-75
2022/03/11 01:38:57;;;;;;;9.98;7.72;;;;;;;;;;4951839;28;20054;-75
2022/03/11 01:41:23;;;;;;;10.40;8.50;;;;;;;;;;4949334;28;20053;-75
2022/03/11 01:43:52;;;;;;;11.05;8.40;;;;;;;;;;4952178;28;20043;-75
2022/03/11 01:46:18;;;;;;;10.52;8.52;;;;;;;;;;4951269;29;20051;-75
2022/03/11 01:48:44;;;;;;;11.68;8.75;;;;;;;;;;4952190;28;20047;-75
2022/03/11 01:51:10;;;;;;;11.82;8.93;;;;;;;;;;4947837;29;20054;-75
2022/03/11 01:53:36;;;;;;;13.25;9.07;;;;;;;;;;4932212;29;20035;-75
2022/03/11 01:56:03;;;;;;;17.65;10.02;;;;;;;;;;4951252;29;20374;-75
2022/03/11 01:58:30;;;;;;;12.60;9.63;;;;;;;;;;4939603;28;20039;-75
2022/03/11 02:00:56;;;;;;;13.52;10.25;;;;;;;;;;4930937;29;20047;-75
2022/03/11 02:03:22;;;;;;;12.05;9.77;;;;;;;;;;4933031;29;20138;-75
2022/03/11 02:05:48;;;;;;;13.75;10.25;;;;;;;;;;4952542;28;20063;-75
2022/03/11 02:08:14;;;;;;;14.35;10.38;;;;;;;;;;4951597;28;20055;-75
2022/03/11 02:10:39;;;;;;;13.07;10.18;;;;;;;;;;4950188;28;20497;-76
2022/03/11 02:13:06;;;;;;;13.13;10.13;;;;;;;;;;4944338;28;20040;-76
2022/03/11 02:15:32;;;;;;;14.93;10.93;;;;;;;;;;4935743;28;20465;-75
2022/03/11 02:17:58;;;;;;;14.10;11.07;;;;;;;;;;4950125;29;20077;-75
2022/03/11 02:20:24;;;;;;;14.65;11.10;;;;;;;;;;4952210;29;20072;-75
2022/03/11 02:22:51;;;;;;;14.57;10.95;;;;;;;;;;4949762;28;20159;-75
2022/03/11 02:25:17;;;;;;;13.95;10.77;;;;;;;;;;4931562;29;20098;-75
2022/03/11 02:27:43;;;;;;;15.55;11.00;;;;;;;;;;4948878;29;20043;-75
2022/03/11 02:30:17;;;;;;;15.45;10.65;;;;;;;;;;4949132;29;20055;-75
2022/03/11 02:32:43;;;;;;;15.27;11.57;;;;;;;;;;4950991;28;20131;-75
2022/03/11 02:35:09;;;;;;;16.73;11.48;;;;;;;;;;4953751;29;20448;-75
2022/03/11 02:37:35;;;;;;;16.15;12.60;;;;;;;;;;4953129;28;20047;-74
2022/03/11 02:40:01;;;;;;;15.70;12.10;;;;;;;;;;4935013;29;20552;-74
2022/03/11 02:42:27;;;;;;;18.88;12.98;;;;;;;;;;4949792;29;20066;-75
2022/03/11 02:44:53;;;;;;;16.88;12.50;;;;;;;;;;4952775;28;20047;-75
2022/03/11 02:47:19;;;;;;;17.63;13.35;;;;;;;;;;4929050;29;20110;-75
2022/03/11 02:49:45;;;;;;;16.65;12.93;;;;;;;;;;4947512;28;20047;-75
2022/03/11 02:52:11;;;;;;;15.98;13.07;;;;;;;;;;4947560;28;20122;-75
2022/03/11 02:54:37;;;;;;;17.42;12.48;;;;;;;;;;4945537;28;20051;-75
2022/03/11 02:57:04;;;;;;;17.40;13.82;;;;;;;;;;4949453;29;20385;-75
2022/03/11 02:59:29;;;;;;;18.85;14.20;;;;;;;;;;4931542;29;20131;-75
2022/03/11 03:01:55;;;;;;;19.30;14.38;;;;;;;;;;4947987;29;20126;-75
2022/03/11 03:04:21;;;;;;;22.38;14.88;;;;;;;;;;4947034;29;20039;-75
2022/03/11 03:06:47;;;;;;;17.98;13.60;;;;;;;;;;4947345;29;20057;-76
2022/03/11 03:09:13;;;;;;;22.00;15.07;;;;;;;;;;4949363;28;20047;-76
2022/03/11 03:11:39;;;;;;;17.98;14.50;;;;;;;;;;4950292;28;20100;-76
2022/03/11 03:14:05;;;;;;;18.95;14.82;;;;;;;;;;4933597;29;20043;-76
2022/03/11 03:16:31;;;;;;;19.27;14.60;;;;;;;;;;4932999;29;20070;-76
2022/03/11 03:18:57;;;;;;;19.40;14.52;;;;;;;;;;4951417;28;20027;-76
2022/03/11 03:21:25;;;;;;;21.67;15.07;;;;;;;;;;4953667;28;20134;-76
2022/03/11 03:23:52;;;;;;;19.25;14.82;;;;;;;;;;4950354;29;20051;-76
2022/03/11 03:26:18;;;;;;;20.35;15.05;;;;;;;;;;4954902;28;20055;-76
2022/03/11 03:28:44;;;;;;;22.27;14.27;;;;;;;;;;4953040;28;20045;-76
2022/03/11 03:31:10;;;;;;;21.52;15.70;;;;;;;;;;4947462;28;20039;-76
2022/03/11 03:33:36;;;;;;;20.73;15.35;;;;;;;;;;4946259;28;20474;-76
2022/03/11 03:36:02;;;;;;;19.15;15.23;;;;;;;;;;4935965;29;20050;-76
2022/03/11 03:38:28;;;;;;;24.85;16.40;;;;;;;;;;4948527;29;20510;-76
2022/03/11 03:40:54;;;;;;;23.45;15.88;;;;;;;;;;4953351;28;20087;-76
2022/03/11 03:43:20;;;;;;;20.67;16.02;;;;;;;;;;4948625;29;20142;-75
2022/03/11 03:45:46;;;;;;;22.45;15.57;;;;;;;;;;4953656;28;20051;-76
2022/03/11 03:48:12;;;;;;;20.33;15.35;;;;;;;;;;4949877;28;20050;-76
2022/03/11 03:50:38;;;;;;;21.38;16.55;;;;;;;;;;4956846;28;20113;-76
2022/03/11 03:53:04;;;;;;;22.20;15.32;;;;;;;;;;4946095;28;20043;-76
2022/03/11 03:55:30;;;;;;;21.63;15.48;;;;;;;;;;4949324;29;20505;-76
2022/03/11 03:57:56;;;;;;;19.00;14.98;;;;;;;;;;4947120;28;20032;-76
2022/03/11 04:00:22;;;;;;;24.27;17.58;;;;;;;;;;4953633;29;20047;-76
2022/03/11 04:02:49;;;;;;;14.40;9.90;;;;;;;;;;4951573;28;20099;-76
2022/03/11 04:05:16;;;;;;;22.40;17.83;;;;;;;;;;4952782;29;20085;-76
2022/03/11 04:07:43;;;;;;;25.60;18.17;;;;;;;;;;4952422;29;20207;-76
2022/03/11 04:10:09;;;;;;;23.42;17.38;;;;;;;;;;4951665;29;20055;-76
2022/03/11 04:12:35;;;;;;;25.38;18.27;;;;;;;;;;4949863;29;20122;-76
2022/03/11 04:15:01;;;;;;;24.13;17.02;;;;;;;;;;4948955;29;20141;-76
2022/03/11 04:17:27;;;;;;;20.05;14.15;;;;;;;;;;4945601;29;20042;-76
2022/03/11 04:19:53;;;;;;;22.10;17.17;;;;;;;;;;4958492;28;20043;-76
2022/03/11 04:22:19;;;;;;;23.05;18.02;;;;;;;;;;4949632;28;20148;-76
2022/03/11 04:24:46;;;;;;;24.48;17.25;;;;;;;;;;4948706;29;20662;-76
2022/03/11 04:27:12;;;;;;;26.30;18.63;;;;;;;;;;4943938;29;20047;-76
2022/03/11 04:29:38;;;;;;;22.33;16.77;;;;;;;;;;4949769;28;20138;-76
2022/03/11 04:32:05;;;;;;;25.42;17.77;;;;;;;;;;4955751;28;20058;-76
2022/03/11 04:34:31;;;;;;;25.02;18.23;;;;;;;;;;4950868;28;20043;-76
2022/03/11 04:36:57;;;;;;;24.15;17.73;;;;;;;;;;4946324;28;20049;-76
2022/03/11 04:39:26;;;;;;;26.00;17.08;;;;;;;;;;4951625;28;20147;-76
2022/03/11 04:41:55;;;;;;;25.50;19.00;;;;;;;;;;4949340;28;20058;-76
2022/03/11 04:44:22;;;;;;;25.58;18.58;;;;;;;;;;4933455;28;20087;-76
2022/03/11 04:46:48;;;;;;;23.85;18.17;;;;;;;;;;4949747;28;20043;-76
2022/03/11 04:49:14;;;;;;;21.52;17.35;;;;;;;;;;4953012;28;20043;-76
2022/03/11 04:51:40;;;;;;;23.77;17.30;;;;;;;;;;4947210;28;20047;-76
2022/03/11 04:54:06;;;;;;;24.17;17.15;;;;;;;;;;4955177;28;20057;-76
2022/03/11 04:56:33;;;;;;;26.13;18.63;;;;;;;;;;4931978;29;20103;-76
2022/03/11 04:58:59;;;;;;;19.67;15.93;;;;;;;;;;4953515;28;20104;-76
2022/03/11 05:01:26;;;;;;;24.63;18.17;;;;;;;;;;4930568;29;20042;-76
2022/03/11 05:03:52;;;;;;;23.35;17.73;;;;;;;;;;4950023;29;20648;-76
2022/03/11 05:06:18;;;;;;;23.05;17.88;;;;;;;;;;4952475;28;20070;-76
2022/03/11 05:08:44;;;;;;;24.30;18.70;;;;;;;;;;4931898;29;20055;-76
2022/03/11 05:11:10;;;;;;;24.27;18.83;;;;;;;;;;4945798;28;20095;-76
2022/03/11 05:13:36;;;;;;;24.17;16.65;;;;;;;;;;4952029;28;20051;-76
2022/03/11 05:16:02;;;;;;;23.73;17.63;;;;;;;;;;4952385;28;20043;-76
2022/03/11 05:18:28;;;;;;;25.20;18.33;;;;;;;;;;4948717;28;20050;-76
2022/03/11 05:20:54;;;;;;;24.90;18.30;;;;;;;;;;4934257;29;20047;-76
2022/03/11 05:23:21;;;;;;;23.67;18.52;;;;;;;;;;4952896;28;20058;-76
2022/03/11 05:25:47;;;;;;;25.88;18.30;;;;;;;;;;4947859;28;20074;-77
2022/03/11 05:28:13;;;;;;;27.00;19.17;;;;;;;;;;4946943;28;20391;-76
2022/03/11 05:30:39;;;;;;;24.15;18.48;;;;;;;;;;4947739;28;20054;-76
2022/03/11 05:33:05;;;;;;;23.20;17.40;;;;;;;;;;4935696;29;20074;-76
2022/03/11 05:35:31;;;;;;;22.60;17.98;;;;;;;;;;4942736;28;20460;-76
2022/03/11 05:37:57;;;;;;;24.75;18.88;;;;;;;;;;4929590;29;20050;-76
2022/03/11 05:40:23;;;;;;;23.50;18.25;;;;;;;;;;4951472;29;20039;-76
2022/03/11 05:42:49;;;;;;;23.63;17.98;;;;;;;;;;4942939;28;20078;-76
2022/03/11 05:45:15;;;;;;;24.55;17.63;;;;;;;;;;4949073;28;20638;-76
2022/03/11 05:47:42;;;;;;;25.15;18.85;;;;;;;;;;4950805;28;20070;-76
2022/03/11 05:50:09;;;;;;;25.08;18.38;;;;;;;;;;4951205;28;20082;-76
2022/03/11 05:52:36;;;;;;;27.02;20.00;;;;;;;;;;4942493;28;20046;-76
2022/03/11 05:55:02;;;;;;;23.05;17.23;;;;;;;;;;4952077;28;20493;-76
2022/03/11 05:57:28;;;;;;;25.58;17.67;;;;;;;;;;4947797;28;20042;-76
2022/03/11 05:59:54;;;;;;;23.27;17.27;;;;;;;;;;4950697;29;20047;-77
2022/03/11 06:02:20;;;;;;;23.80;16.77;;;;;;;;;;4950752;28;20043;-77
2022/03/11 06:04:46;;;;;;;25.55;18.90;;;;;;;;;;4951010;28;20507;-76
2022/03/11 06:07:12;;;;;;;24.02;17.13;;;;;;;;;;4930552;29;20473;-76
2022/03/11 06:09:38;;;;;;;24.67;16.63;;;;;;;;;;4951588;29;20051;-76
2022/03/11 06:12:04;;;;;;;24.88;18.90;;;;;;;;;;4945282;29;20055;-76
2022/03/11 06:14:30;;;;;;;23.73;18.83;;;;;;;;;;4933925;28;20540;-77
2022/03/11 06:16:56;;;;;;;23.60;18.75;;;;;;;;;;4950864;28;20126;-77
2022/03/11 06:19:22;;;;;;;24.77;18.42;;;;;;;;;;4955268;28;20481;-77
2022/03/11 06:21:48;;;;;;;25.10;18.52;;;;;;;;;;4941973;29;20043;-77
2022/03/11 06:24:14;;;;;;;22.42;17.88;;;;;;;;;;4944958;28;20051;-77
2022/03/11 06:26:41;;;;;;;25.23;19.63;;;;;;;;;;4951012;28;20050;-77
2022/03/11 06:29:07;;;;;;;25.08;17.35;;;;;;;;;;4950896;28;20178;-77
2022/03/11 06:31:33;;;;;;;23.90;17.95;;;;;;;;;;4947089;29;20110;-78
2022/03/11 06:33:59;;;;;;;24.20;17.85;;;;;;;;;;4948111;28;20043;-77
2022/03/11 06:36:28;;;;;;;23.00;16.73;;;;;;;;;;4951168;28;20567;-77
2022/03/11 06:38:54;;;;;;;25.92;18.50;;;;;;;;;;4945318;28;20115;-77
2022/03/11 06:41:21;;;;;;;25.58;18.38;;;;;;;;;;4950697;29;20062;-77
2022/03/11 06:43:47;;;;;;;21.65;14.35;;;;;;;;;;4945248;29;20039;-77
2022/03/11 06:46:13;;;;;;;22.00;15.23;;;;;;;;;;4950022;28;20705;-77
2022/03/11 06:48:39;;;;;;;22.98;17.60;;;;;;;;;;4933821;29;20050;-77
2022/03/11 06:51:05;;;;;;;24.83;18.60;;;;;;;;;;4946283;28;20055;-77
2022/03/11 06:53:32;;;;;;;24.10;18.00;;;;;;;;;;4935360;29;20032;-76
2022/03/11 06:56:00;;;;;;;21.73;15.02;;;;;;;;;;4934788;29;20070;-76
2022/03/11 06:58:26;;;;;;;22.02;17.92;;;;;;;;;;4936780;29;20047;-77
2022/03/11 07:00:52;;;;;;;23.15;17.75;;;;;;;;;;4948930;29;20508;-76
2022/03/11 07:03:18;;;;;;;24.35;17.80;;;;;;;;;;4953607;29;20058;-77
2022/03/11 07:05:44;;;;;;;20.20;16.00;;;;;;;;;;4932034;29;20078;-76
2022/03/11 07:08:10;;;;;;;22.55;17.17;;;;;;;;;;4945791;29;20552;-77
2022/03/11 07:10:36;;;;;;;19.77;14.75;;;;;;;;;;4953265;28;20126;-77
2022/03/11 07:13:02;;;;;;;18.17;15.35;;;;;;;;;;4950094;29;20043;-76
2022/03/11 07:15:28;;;;;;;21.67;17.80;;;;;;;;;;4935358;29;20066;-76
2022/03/11 07:17:55;;;;;;;23.50;16.50;;;;;;;;;;4954509;29;20106;-77
2022/03/11 07:20:21;;;;;;;22.05;17.20;;;;;;;;;;4949661;29;20043;-77
2022/03/11 07:22:47;;;;;;;17.50;14.00;;;;;;;;;;4943769;28;20429;-77
2022/03/11 07:25:14;;;;;;;21.98;17.52;;;;;;;;;;4941736;29;20396;-77
2022/03/11 07:27:40;;;;;;;21.58;16.60;;;;;;;;;;4954905;28;20050;-75
2022/03/11 07:30:06;;;;;;;21.00;16.75;;;;;;;;;;4937192;28;20046;-77
2022/03/11 07:32:32;;;;;;;20.85;16.88;;;;;;;;;;4937313;29;20453;-77
2022/03/11 07:34:58;;;;;;;21.60;16.88;;;;;;;;;;4954276;28;20053;-77
2022/03/11 07:37:24;;;;;;;20.75;16.80;;;;;;;;;;4945597;29;20035;-77
2022/03/11 07:39:50;;;;;;;19.73;16.27;;;;;;;;;;4956409;28;20125;-77
2022/03/11 07:42:16;;;;;;;20.42;16.10;;;;;;;;;;4939578;29;20067;-77
2022/03/11 07:44:44;;;;;;;21.40;16.20;;;;;;;;;;4937317;29;20585;-77
2022/03/11 07:47:10;;;;;;;20.02;15.23;;;;;;;;;;4952321;29;20126;-77
2022/03/11 07:49:36;;;;;;;20.67;16.25;;;;;;;;;;4960217;28;20163;-77
2022/03/11 07:52:02;;;;;;;22.13;18.20;;;;;;;;;;4952770;28;20061;-77
2022/03/11 07:54:28;;;;;;;21.00;15.70;;;;;;;;;;4936834;29;20035;-76
2022/03/11 07:56:54;;;;;;;22.58;16.05;;;;;;;;;;4930555;29;20190;-76
2022/03/11 07:59:20;;;;;;;22.20;16.90;;;;;;;;;;4933512;29;20449;-76
2022/03/11 08:01:47;;;;;;;21.30;15.70;;;;;;;;;;4935191;29;20075;-77
2022/03/11 08:04:13;;;;;;;20.33;15.77;;;;;;;;;;4951166;29;20039;-76
2022/03/11 08:06:40;;;;;;;22.30;17.13;;;;;;;;;;4953010;28;20070;-76
2022/03/11 08:09:06;;;;;;;20.90;15.20;;;;;;;;;;4954517;28;20121;-76
2022/03/11 08:11:32;;;;;;;21.42;17.05;;;;;;;;;;4951560;29;20067;-76
2022/03/11 08:13:58;;;;;;;21.15;16.77;;;;;;;;;;4932532;29;20077;-76
2022/03/11 08:16:24;;;;;;;21.48;16.85;;;;;;;;;;4948641;28;20043;-76
2022/03/11 08:18:50;;;;;;;22.45;16.05;;;;;;;;;;4949413;28;20044;-76
2022/03/11 08:21:18;;;;;;;21.63;15.98;;;;;;;;;;4949167;29;20134;-76
2022/03/11 08:23:45;;;;;;;21.75;17.95;;;;;;;;;;4951006;29;20039;-77
2022/03/11 08:26:11;;;;;;;26.08;16.50;;;;;;;;;;4944857;28;20053;-76
2022/03/11 08:28:38;;;;;;;23.55;16.58;;;;;;;;;;4950335;29;20101;-77
2022/03/11 08:31:04;;;;;;;21.17;16.20;;;;;;;;;;4935218;29;20095;-77
2022/03/11 08:33:30;;;;;;;22.13;16.38;;;;;;;;;;4947737;29;20072;-77
2022/03/11 08:35:57;;;;;;;22.60;16.52;;;;;;;;;;4946314;28;20394;-77
2022/03/11 08:38:23;;;;;;;23.10;16.70;;;;;;;;;;4932347;29;20046;-77
2022/03/11 08:40:49;;;;;;;21.67;16.67;;;;;;;;;;4947826;29;20047;-77
2022/03/11 08:43:15;;;;;;;22.27;15.80;;;;;;;;;;4934069;29;20054;-76
2022/03/11 08:45:42;;;;;;;20.70;16.85;;;;;;;;;;4934578;29;20377;-76
2022/03/11 08:48:08;;;;;;;20.67;15.35;;;;;;;;;;4935469;29;20733;-76
2022/03/11 08:50:34;;;;;;;21.52;16.90;;;;;;;;;;4951170;28;20062;-76
2022/03/11 08:53:00;;;;;;;22.75;16.42;;;;;;;;;;4950248;28;20478;-76
2022/03/11 08:55:26;;;;;;;24.27;15.82;;;;;;;;;;4950609;28;20118;-76
2022/03/11 08:57:52;;;;;;;18.50;14.20;;;;;;;;;;4951681;28;20522;-76
2022/03/11 09:00:19;;;;;;;20.90;14.75;;;;;;;;;;4949594;28;20046;-76
2022/03/11 09:02:45;;;;;;;20.77;15.57;;;;;;;;;;4947299;29;20051;-75
2022/03/11 09:05:13;;;;;;;21.65;16.17;;;;;;;;;;4949841;28;20494;-76
2022/03/11 09:07:39;;;;;;;21.95;16.33;;;;;;;;;;4940152;28;20101;-75
2022/03/11 09:10:06;;;;;;;19.67;15.63;;;;;;;;;;4947758;28;20086;-76
2022/03/11 09:12:32;;;;;;;19.92;14.88;;;;;;;;;;4951465;28;20378;-76
2022/03/11 09:14:58;;;;;;;24.65;17.55;;;;;;;;;;4931597;29;20047;-76
2022/03/11 09:17:24;;;;;;;20.27;16.08;;;;;;;;;;4948248;28;20481;-75
2022/03/11 09:19:50;;;;;;;21.65;16.92;;;;;;;;;;4948112;28;20058;-75
2022/03/11 09:22:17;;;;;;;20.42;15.13;;;;;;;;;;4949281;28;20043;-76
2022/03/11 09:24:44;;;;;;;20.98;16.58;;;;;;;;;;4949133;28;20518;-76
2022/03/11 09:27:11;;;;;;;19.63;15.35;;;;;;;;;;4931120;29;20092;-76
2022/03/11 09:29:37;;;;;;;23.75;17.48;;;;;;;;;;4950406;28;20054;-75
2022/03/11 09:32:03;;;;;;;21.00;13.88;;;;;;;;;;4950772;29;20043;-75
2022/03/11 09:34:30;;;;;;;19.17;15.48;;;;;;;;;;4950257;28;20058;-75
2022/03/11 09:36:56;;;;;;;19.17;14.70;;;;;;;;;;4928432;29;20050;-75
2022/03/11 09:39:23;;;;;;;23.88;15.73;;;;;;;;;;4949077;29;20050;-76
2022/03/11 09:41:49;;;;;;;20.65;15.90;;;;;;;;;;4940464;29;20043;-76
2022/03/11 09:44:16;;;;;;;19.42;16.33;;;;;;;;;;4940016;28;20051;-76
2022/03/11 09:46:42;;;;;;;20.92;15.52;;;;;;;;;;4933334;28;20035;-76
2022/03/11 09:49:09;;;;;;;18.92;15.70;;;;;;;;;;4938069;28;20043;-76
2022/03/11 09:51:35;;;;;;;23.83;18.25;;;;;;;;;;4935265;28;20051;-76
2022/03/11 09:54:02;;;;;;;20.70;15.57;;;;;;;;;;4927333;29;20472;-76
2022/03/11 09:56:29;;;;;;;20.25;15.80;;;;;;;;;;4944281;29;20478;-75
2022/03/11 09:58:55;;;;;;;20.70;17.05;;;;;;;;;;4941420;29;20051;-75
2022/03/11 10:01:21;;;;;;;20.20;16.63;;;;;;;;;;4952744;28;20110;-75
2022/03/11 10:03:47;;;;;;;25.40;16.90;;;;;;;;;;4945235;29;20075;-76
2022/03/11 10:06:13;;;;;;;17.45;13.32;;;;;;;;;;4950148;28;20067;-75
2022/03/11 10:08:44;;;;;;;21.65;15.38;;;;;;;;;;4946425;28;20051;-75
2022/03/11 10:11:16;;;;;;;20.88;15.65;;;;;;;;;;4942141;28;20064;-76
2022/03/11 10:13:43;;;;;;;19.40;15.30;;;;;;;;;;4943590;29;20630;-76
2022/03/11 10:16:16;;;;;;;21.67;17.35;;;;;;;;;;4945047;29;20039;-76
2022/03/11 10:18:46;;;;;;;19.60;16.45;;;;;;;;;;4947002;28;20032;-76
2022/03/11 10:21:12;;;;;;;20.25;13.95;;;;;;;;;;4952591;23;20083;-76
2022/03/11 10:23:48;;;;;;;22.27;16.10;;;;;;;;;;4945162;28;20102;-76
2022/03/11 10:26:29;;;;;;;19.73;15.55;;;;;;;;;;4949350;29;20388;-76
2022/03/11 10:28:58;;;;;;;22.95;16.63;;;;;;;;;;4927813;29;20493;-76
2022/03/11 10:31:35;;;;;;;21.35;16.58;;;;;;;;;;4933659;29;20039;-76
2022/03/11 10:34:11;;;;;;;21.67;15.88;;;;;;;;;;4950547;29;20551;-76
2022/03/11 10:36:37;;;;;;;22.73;15.93;;;;;;;;;;4947371;29;20075;-76
2022/03/11 10:39:16;;;;;;;20.27;16.13;;;;;;;;;;4949419;28;20401;-76
2022/03/11 10:41:43;;;;;;;18.75;15.23;;;;;;;;;;4928830;29;20054;-76
2022/03/11 10:44:09;;;;;;;21.73;15.35;;;;;;;;;;4931861;29;20074;-76
2022/03/11 10:46:35;;;;;;;20.23;13.65;;;;;;;;;;4937092;29;20074;-76
2022/03/11 10:49:02;;;;;;;21.48;16.15;;;;;;;;;;4934992;29;20039;-76
2022/03/11 10:51:30;;;;;;;17.70;13.52;;;;;;;;;;4943154;29;20631;-76
2022/03/11 10:53:56;;;;;;;21.00;15.38;;;;;;;;;;4951228;29;20054;-76
2022/03/11 10:56:26;;;;;;;17.80;14.25;;;;;;;;;;4947765;29;20351;-76
2022/03/11 10:58:52;;;;;;;16.98;14.27;;;;;;;;;;4926867;29;20501;-76
2022/03/11 11:01:38;;;;;;;19.27;15.45;;;;;;;;;;4947664;29;20051;-76
2022/03/11 11:04:05;;;;;;;18.88;15.07;;;;;;;;;;4950338;29;20039;-75
2022/03/11 11:06:31;;;;;;;19.70;15.57;;;;;;;;;;4951375;29;20046;-75
2022/03/11 11:08:57;;;;;;;21.60;15.98;;;;;;;;;;4948313;29;20039;-76
2022/03/11 11:11:23;;;;;;;19.65;14.85;;;;;;;;;;4949950;29;20424;-76
2022/03/11 11:13:50;;;;;;;17.45;14.20;;;;;;;;;;4947592;29;20035;-76
2022/03/11 11:16:17;;;;;;;19.70;14.80;;;;;;;;;;4949222;29;20500;-76
2022/03/11 11:18:46;;;;;;;21.15;15.85;;;;;;;;;;4932837;29;20082;-76
2022/03/11 11:21:13;;;;;;;19.42;14.40;;;;;;;;;;4938076;28;20055;-76
2022/03/11 11:23:39;;;;;;;21.55;15.43;;;;;;;;;;4946078;28;20074;-76
2022/03/11 11:26:07;;;;;;;17.60;13.98;;;;;;;;;;4948093;28;20370;-76
2022/03/11 11:28:33;;;;;;;21.80;15.73;;;;;;;;;;4944896;29;20141;-75
2022/03/11 11:30:59;;;;;;;16.88;14.15;;;;;;;;;;4950438;28;20054;-75
2022/03/11 11:33:25;;;;;;;17.15;14.18;;;;;;;;;;4922109;28;20629;-76
2022/03/11 11:36:01;;;;;;;19.35;14.38;;;;;;;;;;4942350;28;20040;-75
2022/03/11 11:38:27;;;;;;;17.70;14.65;;;;;;;;;;4940155;28;20126;-75
2022/03/11 11:40:54;;;;;;;19.80;15.18;;;;;;;;;;4942277;28;20043;-75
2022/03/11 11:43:30;;;;;;;16.17;13.63;;;;;;;;;;4929887;28;20094;-75
2022/03/11 11:46:02;;;;;;;15.95;12.80;;;;;;;;;;4949626;29;20044;-75
2022/03/11 11:48:28;;;;;;;;;;;;;;;;;;4944839;28;20384;-75
2022/03/11 11:50:54;;;;;;;18.58;13.65;;;;;;;;;;4940750;28;19926;-76
2022/03/11 11:53:33;;;;;;;18.42;13.88;;;;;;;;;;4941064;28;20039;-75
2022/03/11 11:55:59;;;;;;;18.38;14.82;;;;;;;;;;4937731;28;20039;-75
2022/03/11 11:58:25;;;;;;;19.52;14.85;;;;;;;;;;4923953;29;20083;-75
2022/03/11 12:00:55;;;;;;;15.82;13.85;;;;;;;;;;4941359;28;20488;-75
2022/03/11 12:03:41;;;;;;;17.48;14.25;;;;;;;;;;4949505;28;20043;-75
2022/03/11 12:06:07;;;;;;;17.00;14.68;;;;;;;;;;4945970;29;20055;-75
2022/03/11 12:08:42;;;;;;;20.15;15.00;;;;;;;;;;4951201;28;20031;-76
2022/03/11 12:11:08;;;;;;;16.85;14.35;;;;;;;;;;4934573;29;20594;-75
2022/03/11 12:13:38;;;;;;;16.48;14.70;;;;;;;;;;4955481;28;20050;-76
2022/03/11 12:16:05;;;;;;;18.63;14.75;;;;;;;;;;4952209;28;20152;-75
2022/03/11 12:18:35;;;;;;;16.50;14.18;;;;;;;;;;4951724;28;20043;-75
2022/03/11 12:21:01;;;;;;;16.70;13.82;;;;;;;;;;4952220;28;20134;-75
2022/03/11 12:23:31;;;;;;;16.27;12.70;;;;;;;;;;4948788;29;20047;-75
2022/03/11 12:25:58;;;;;;;19.17;13.73;;;;;;;;;;4934323;29;20090;-75
2022/03/11 12:28:27;;;;;;;15.40;12.80;;;;;;;;;;4950249;29;20051;-75
2022/03/11 12:30:56;;;;;;;17.02;14.23;;;;;;;;;;4946026;29;20043;-75
2022/03/11 12:33:24;;;;;;;16.15;12.93;;;;;;;;;;4946400;29;20174;-75
2022/03/11 12:35:52;;;;;;;17.20;12.93;;;;;;;;;;4950891;29;20082;-75
2022/03/11 12:38:19;;;;;;;14.77;13.23;;;;;;;;;;4946581;29;20564;-75
2022/03/11 12:40:45;;;;;;;17.98;12.63;;;;;;;;;;4950007;29;20070;-75
2022/03/11 12:43:12;;;;;;;18.33;11.98;;;;;;;;;;4951658;29;20050;-75
2022/03/11 12:45:45;;;;;;;15.32;13.70;;;;;;;;;;4948901;29;20481;-75
2022/03/11 12:48:12;;;;;;;17.27;12.60;;;;;;;;;;4949588;29;20066;-75
2022/03/11 12:50:39;;;;;;;15.27;12.50;;;;;;;;;;4951277;29;20070;-75
2022/03/11 12:53:09;;;;;;;14.68;11.65;;;;;;;;;;4950654;29;20066;-75
2022/03/11 12:55:37;;;;;;;16.90;12.75;;;;;;;;;;4951641;28;20046;-75
2022/03/11 12:58:07;;;;;;;15.55;11.55;;;;;;;;;;4938874;29;20039;-75
2022/03/11 13:00:36;;;;;;;19.02;13.02;;;;;;;;;;4948024;29;20058;-75
2022/03/11 13:03:06;;;;;;;17.02;13.68;;;;;;;;;;4948694;29;20054;-76
2022/03/11 13:05:32;;;;;;;14.50;11.98;;;;;;;;;;4950291;29;20166;-75
2022/03/11 13:08:05;;;;;;;15.35;12.02;;;;;;;;;;4950446;29;20549;-74
2022/03/11 13:10:31;;;;;;;15.45;12.25;;;;;;;;;;4945406;29;20749;-75
2022/03/11 13:12:58;;;;;;;14.75;11.85;;;;;;;;;;4946575;29;20046;-75
2022/03/11 13:15:27;;;;;;;15.32;12.80;;;;;;;;;;4945232;29;20035;-75
2022/03/11 13:17:59;;;;;;;18.90;13.43;;;;;;;;;;4944498;29;20070;-76
2022/03/11 13:20:25;;;;;;;14.70;12.77;;;;;;;;;;4946135;29;20055;-75
2022/03/11 13:22:51;;;;;;;15.15;11.57;;;;;;;;;;4948819;29;20186;-75
2022/03/11 13:25:23;;;;;;;15.68;12.30;;;;;;;;;;4944852;29;20039;-75
2022/03/11 13:27:49;;;;;;;16.65;12.65;;;;;;;;;;4928442;29;20035;-75
2022/03/11 13:30:15;;;;;;;14.90;12.07;;;;;;;;;;4942871;29;20043;-75
2022/03/11 13:32:41;;;;;;;15.20;11.88;;;;;;;;;;4941656;29;20114;-75
2022/03/11 13:35:07;;;;;;;17.00;11.93;;;;;;;;;;4938856;29;20035;-75
2022/03/11 13:37:42;;;;;;;14.10;11.23;;;;;;;;;;4942838;28;20079;-75
2022/03/11 13:40:09;;;;;;;14.93;11.32;;;;;;;;;;4940085;28;20071;-75
2022/03/11 13:42:35;;;;;;;13.38;10.23;;;;;;;;;;4927540;28;20051;-75
2022/03/11 13:45:08;;;;;;;15.93;11.60;;;;;;;;;;4941912;29;20486;-75
2022/03/11 13:47:34;;;;;;;13.68;11.93;;;;;;;;;;4947454;29;20090;-76
2022/03/11 13:50:07;;;;;;;14.02;11.98;;;;;;;;;;4930709;29;20047;-75
2022/03/11 13:52:40;;;;;;;14.23;11.95;;;;;;;;;;4948500;29;20039;-75
2022/03/11 13:55:10;;;;;;;14.95;11.77;;;;;;;;;;4932899;29;20436;-75
2022/03/11 13:57:37;;;;;;;14.63;11.23;;;;;;;;;;4933834;29;20050;-75
2022/03/11 14:00:15;;;;;;;16.00;11.38;;;;;;;;;;4947872;29;20043;-76
2022/03/11 14:02:41;;;;;;;13.07;11.05;;;;;;;;;;4930622;29;20071;-73
2022/03/11 14:05:16;;;;;;;12.40;11.10;;;;;;;;;;4947657;28;20051;-75
2022/03/11 14:07:42;;;;;;;13.15;11.60;;;;;;;;;;4945282;29;20047;-74
2022/03/11 14:10:15;;;;;;;14.68;10.43;;;;;;;;;;4950651;29;20047;-74
2022/03/11 14:12:42;;;;;;;16.08;10.55;;;;;;;;;;4947797;29;20377;-74
2022/03/11 14:15:09;;;;;;;13.52;11.00;;;;;;;;;;4946377;29;20122;-74
2022/03/11 14:17:35;;;;;;;12.55;10.85;;;;;;;;;;4926151;29;20111;-74